Time;durP1;ratioP1;P1;durP2;ratioP2;P2;SDS_P1;SDS_P2;PMS_P1;PMS_P2;Temp;Humidity;BMP_temperature;BMP_pressure;BME280_temperature;BME280_humidity;BME280_pressure;Samples;Min_cycle;Max_cycle;Signal;HPM_P1;HPM_P2
2023/11/30 00:02:24;;;;;;;2.90;2.60;;;;;;;21.11;45.57;96191.13;4950792;29;20232;-26
2023/11/30 00:04:51;;;;;;;2.90;2.67;;;;;;;21.10;45.73;96197.09;4943879;29;20232;-25
2023/11/30 00:07:17;;;;;;;2.93;2.63;;;;;;;21.11;45.39;96200.50;4945346;29;20211;-26
2023/11/30 00:09:44;;;;;;;2.77;2.57;;;;;;;21.11;45.55;96206.47;4938955;29;20212;-25
2023/11/30 00:12:10;;;;;;;2.93;2.63;;;;;;;21.10;45.50;96209.88;4933735;29;20224;-26
2023/11/30 00:14:37;;;;;;;3.17;2.90;;;;;;;21.11;45.37;96205.63;4938321;29;20216;-25
2023/11/30 00:17:04;;;;;;;2.70;2.50;;;;;;;21.11;45.55;96203.06;4940550;29;20218;-25
2023/11/30 00:19:30;;;;;;;2.90;2.70;;;;;;;21.11;45.51;96203.91;4945775;29;20642;-25
2023/11/30 00:21:57;;;;;;;2.90;2.60;;;;;;;21.12;45.57;96215.00;4946456;29;20731;-25
2023/11/30 00:24:23;;;;;;;2.80;2.60;;;;;;;21.11;45.46;96215.84;4947062;29;20269;-25
2023/11/30 00:26:50;;;;;;;2.83;2.63;;;;;;;21.11;45.43;96221.78;4951848;28;20582;-25
2023/11/30 00:29:17;;;;;;;2.87;2.67;;;;;;;20.83;45.43;96172.94;4943951;29;20593;-23
2023/11/30 00:31:43;;;;;;;2.70;2.50;;;;;;;21.12;45.48;96217.53;4939914;29;20217;-25
2023/11/30 00:34:10;;;;;;;2.90;2.60;;;;;;;21.12;45.18;96217.53;4950375;29;20263;-26
2023/11/30 00:36:36;;;;;;;3.00;2.70;;;;;;;21.12;45.45;96218.41;4947986;29;20229;-25
2023/11/30 00:39:03;;;;;;;2.87;2.67;;;;;;;21.12;45.65;96220.97;4943441;29;20251;-25
2023/11/30 00:41:30;;;;;;;2.60;2.40;;;;;;;21.10;45.63;96209.00;4950438;29;20636;-25
2023/11/30 00:43:57;;;;;;;2.50;2.30;;;;;;;21.14;45.64;96220.97;4946330;29;20255;-25
2023/11/30 00:46:23;;;;;;;3.00;2.80;;;;;;;21.13;45.62;96215.00;4941151;29;20204;-26
2023/11/30 00:48:50;;;;;;;2.50;2.30;;;;;;;21.12;45.43;96215.84;4940831;29;20209;-27
2023/11/30 00:51:17;;;;;;;2.80;2.60;;;;;;;21.12;45.44;96212.44;4944865;29;20679;-26
2023/11/30 00:53:43;;;;;;;2.70;2.50;;;;;;;21.12;45.35;96212.44;4949353;29;20203;-26
2023/11/30 00:56:10;;;;;;;2.53;2.33;;;;;;;21.11;45.36;96210.72;4945993;29;20731;-25
2023/11/30 00:58:37;;;;;;;2.73;2.53;;;;;;;21.11;45.32;96210.72;4938253;29;20260;-25
2023/11/30 01:01:04;;;;;;;3.07;2.77;;;;;;;21.11;45.46;96214.13;4938373;29;20296;-26
2023/11/30 01:03:30;;;;;;;2.77;2.57;;;;;;;21.10;45.64;96212.41;4944932;29;20251;-25
2023/11/30 01:05:57;;;;;;;2.80;2.60;;;;;;;21.12;45.52;96209.88;4949425;29;20204;-26
2023/11/30 01:08:23;;;;;;;2.70;2.50;;;;;;;21.11;45.58;96205.63;4941838;29;20651;-25
2023/11/30 01:10:50;;;;;;;2.83;2.50;;;;;;;21.10;45.41;96197.09;4941863;29;20209;-25
2023/11/30 01:13:17;;;;;;;2.77;2.57;;;;;;;21.11;45.75;96200.50;4942707;29;20231;-25
2023/11/30 01:15:43;;;;;;;2.47;2.27;;;;;;;21.11;45.55;96206.47;4943489;29;20247;-25
2023/11/30 01:18:10;;;;;;;2.80;2.50;;;;;;;21.11;45.63;96210.72;4939114;29;20205;-26
2023/11/30 01:20:37;;;;;;;2.60;2.40;;;;;;;21.11;45.65;96205.63;4944200;29;20291;-26
2023/11/30 01:23:04;;;;;;;2.90;2.70;;;;;;;21.11;45.35;96196.25;4925420;29;20233;-25
2023/11/30 01:25:31;;;;;;;2.60;2.40;;;;;;;21.12;45.35;96200.53;4947069;29;20255;-25
2023/11/30 01:27:57;;;;;;;2.60;2.40;;;;;;;21.12;45.57;96202.22;4949896;29;20204;-25
2023/11/30 01:30:24;;;;;;;2.80;2.60;;;;;;;21.12;45.37;96203.09;4948830;29;20234;-25
2023/11/30 01:32:50;;;;;;;2.90;2.60;;;;;;;21.13;45.55;96199.69;4952136;29;20759;-25
2023/11/30 01:35:17;;;;;;;2.50;2.30;;;;;;;21.12;45.74;96202.22;4940650;29;20256;-24
2023/11/30 01:37:44;;;;;;;2.90;2.70;;;;;;;21.12;45.64;96194.56;4943068;29;20201;-25
2023/11/30 01:40:11;;;;;;;2.90;2.70;;;;;;;21.12;45.22;96200.53;4938677;29;20236;-24
2023/11/30 01:42:37;;;;;;;2.43;2.23;;;;;;;21.11;45.35;96191.13;4943447;29;20236;-25
2023/11/30 01:45:04;;;;;;;2.73;2.53;;;;;;;21.11;45.51;96188.56;4945353;29;20196;-25
2023/11/30 01:47:31;;;;;;;2.57;2.37;;;;;;;21.11;45.48;96188.56;4945012;29;20212;-25
2023/11/30 01:49:59;;;;;;;2.97;2.70;;;;;;;21.11;45.40;96187.75;4926746;29;20205;-25
2023/11/30 01:52:25;;;;;;;2.60;2.40;;;;;;;21.11;45.38;96188.56;4941516;29;20225;-26
2023/11/30 01:54:52;;;;;;;2.83;2.50;;;;;;;21.12;45.43;96182.66;4919540;29;20220;-25
2023/11/30 01:57:18;;;;;;;2.63;2.43;;;;;;;21.10;45.49;96184.31;4925286;29;20263;-25
2023/11/30 01:59:45;;;;;;;2.70;2.50;;;;;;;21.11;45.35;96186.03;4944060;29;20211;-24
2023/11/30 02:02:12;;;;;;;2.50;2.30;;;;;;;21.10;45.36;96180.91;4926884;29;20224;-25
2023/11/30 02:04:39;;;;;;;2.90;2.70;;;;;;;21.11;45.32;96177.53;4919778;29;20253;-25
2023/11/30 02:07:06;;;;;;;2.60;2.40;;;;;;;21.11;45.28;96174.97;4907643;29;20272;-25
2023/11/30 02:09:33;;;;;;;2.80;2.60;;;;;;;20.83;45.30;96129.53;4946289;29;20217;-25
2023/11/30 02:11:59;;;;;;;2.80;2.60;;;;;;;21.11;45.31;96173.25;4946374;29;20224;-26
2023/11/30 02:14:26;;;;;;;2.30;2.10;;;;;;;21.11;45.34;96174.97;4942452;29;20663;-25
2023/11/30 02:16:52;;;;;;;2.43;2.23;;;;;;;21.08;45.49;96164.72;4935296;29;20266;-25
2023/11/30 02:19:19;;;;;;;2.63;2.43;;;;;;;21.10;45.47;96165.56;4943606;29;20295;-26
2023/11/30 02:21:51;;;;;;;2.40;2.20;;;;;;;21.10;45.49;96153.66;4945171;29;20259;-25
2023/11/30 02:24:18;;;;;;;2.90;2.70;;;;;;;21.09;45.49;96143.44;4945882;29;20779;-26
2023/11/30 02:26:45;;;;;;;2.80;2.60;;;;;;;21.11;45.44;96145.16;4947642;29;20201;-26
2023/11/30 02:29:15;;;;;;;2.63;2.43;;;;;;;21.13;45.70;96147.72;4949567;29;20298;-26
2023/11/30 02:31:42;;;;;;;2.57;2.37;;;;;;;21.11;45.57;96140.03;4938595;29;20220;-25
2023/11/30 02:34:09;;;;;;;2.70;2.50;;;;;;;21.12;45.47;96138.34;4943406;29;20205;-25
2023/11/30 02:36:35;;;;;;;2.80;2.60;;;;;;;21.12;45.76;96148.56;4934933;29;21160;-24
2023/11/30 02:39:02;;;;;;;2.47;2.27;;;;;;;21.12;45.48;96140.91;4945472;29;20232;-25
2023/11/30 02:41:28;;;;;;;2.43;2.23;;;;;;;21.10;45.61;96146.00;4944259;29;20196;-25
2023/11/30 02:43:55;;;;;;;2.87;2.67;;;;;;;21.10;45.26;96140.91;4947973;29;20201;-25
2023/11/30 02:46:23;;;;;;;2.63;2.43;;;;;;;21.12;45.47;96133.25;4948981;29;20599;-25
2023/11/30 02:48:49;;;;;;;2.83;2.30;;;;;;;21.11;45.37;96137.50;4944198;29;20211;-26
2023/11/30 02:51:16;;;;;;;2.37;2.17;;;;;;;21.11;45.32;96129.00;4946830;29;20209;-25
2023/11/30 02:53:43;;;;;;;2.40;2.20;;;;;;;21.10;45.17;96138.34;4945266;29;20229;-25
2023/11/30 02:56:10;;;;;;;2.60;2.40;;;;;;;21.12;45.42;96130.69;4950465;29;20221;-26
2023/11/30 02:58:36;;;;;;;2.50;2.30;;;;;;;20.99;45.20;96099.06;4948965;29;20307;-24
2023/11/30 03:01:03;;;;;;;2.67;2.47;;;;;;;21.11;45.18;96111.09;4938961;29;20201;-25
2023/11/30 03:03:30;;;;;;;2.60;2.40;;;;;;;21.11;45.30;96118.78;4943454;29;20283;-25
2023/11/30 03:05:57;;;;;;;2.43;2.23;;;;;;;21.11;45.06;96119.59;4943228;29;20226;-26
2023/11/30 03:08:23;;;;;;;2.60;2.40;;;;;;;21.11;45.09;96121.31;4947278;29;20205;-25
2023/11/30 03:10:50;;;;;;;2.37;2.17;;;;;;;21.12;45.36;96128.13;4943545;29;20205;-25
2023/11/30 03:13:17;;;;;;;2.70;2.50;;;;;;;21.08;45.17;96104.25;4939438;29;20225;-25
2023/11/30 03:15:44;;;;;;;2.70;2.50;;;;;;;21.10;45.19;96097.47;4951776;29;20232;-25
2023/11/30 03:18:11;;;;;;;2.43;2.23;;;;;;;21.10;45.21;96101.72;4948903;29;20645;-26
2023/11/30 03:20:38;;;;;;;2.67;2.47;;;;;;;21.10;45.45;96100.03;4942055;29;20657;-25
2023/11/30 03:23:04;;;;;;;2.70;2.50;;;;;;;21.11;45.40;96104.28;4953252;29;20670;-28
2023/11/30 03:25:32;;;;;;;2.53;2.33;;;;;;;21.10;45.37;96102.59;4942916;29;20207;-26
2023/11/30 03:27:59;;;;;;;2.50;2.30;;;;;;;21.11;45.32;96095.78;4942621;29;20205;-26
2023/11/30 03:30:26;;;;;;;2.50;2.30;;;;;;;21.11;45.63;96100.88;4940219;29;20212;-28
2023/11/30 03:32:55;;;;;;;2.60;2.40;;;;;;;21.10;45.63;96111.94;4944477;29;20819;-26
2023/11/30 03:35:21;;;;;;;2.40;2.20;;;;;;;21.10;45.38;96120.47;4947756;29;20429;-26
2023/11/30 03:37:49;;;;;;;2.70;2.50;;;;;;;21.10;45.40;96115.34;4943190;29;20208;-26
2023/11/30 03:40:16;;;;;;;2.83;2.50;;;;;;;21.10;45.62;96107.69;4942976;29;20954;-26
2023/11/30 03:42:43;;;;;;;2.63;2.43;;;;;;;21.04;45.25;96097.41;4939629;29;20751;-27
2023/11/30 03:45:09;;;;;;;2.50;2.30;;;;;;;21.07;45.47;96094.91;4950760;29;20275;-26
2023/11/30 03:47:36;;;;;;;2.47;2.27;;;;;;;21.10;45.37;96089.81;4942695;29;20680;-26
2023/11/30 03:50:03;;;;;;;2.43;2.23;;;;;;;21.08;45.25;96088.94;4945904;29;20279;-38
2023/11/30 03:52:29;;;;;;;2.60;2.40;;;;;;;21.10;45.07;96097.47;4940802;29;20240;-27
2023/11/30 03:54:56;;;;;;;2.53;2.33;;;;;;;21.11;45.18;96106.00;4952080;29;20200;-28
2023/11/30 03:57:22;;;;;;;2.70;2.50;;;;;;;21.12;45.28;96115.38;4944844;29;20208;-26
2023/11/30 03:59:50;;;;;;;2.50;2.30;;;;;;;21.11;45.04;96108.56;4951052;29;20205;-27
2023/11/30 04:02:17;;;;;;;2.60;2.40;;;;;;;21.10;45.29;96112.78;4942192;29;20312;-28
2023/11/30 04:04:44;;;;;;;2.53;2.33;;;;;;;21.11;45.21;96111.09;4951137;29;20668;-26
2023/11/30 04:07:10;;;;;;;3.10;2.70;;;;;;;21.11;45.29;96101.72;4945153;29;20201;-28
2023/11/30 04:09:37;;;;;;;2.70;2.50;;;;;;;21.12;45.26;96105.16;4950455;29;20710;-26
2023/11/30 04:12:04;;;;;;;2.67;2.47;;;;;;;21.10;45.18;96110.25;4952873;29;20256;-27
2023/11/30 04:14:31;;;;;;;2.60;2.40;;;;;;;21.10;45.39;96102.59;4945998;29;20205;-27
2023/11/30 04:16:57;;;;;;;2.83;2.60;;;;;;;21.11;45.08;96099.16;4941869;29;20309;-26
2023/11/30 04:19:29;;;;;;;2.37;2.17;;;;;;;21.11;45.19;96094.06;4942265;29;20211;-26
2023/11/30 04:21:56;;;;;;;2.50;2.30;;;;;;;21.10;45.09;96102.59;4954550;29;20259;-28
2023/11/30 04:24:22;;;;;;;2.77;2.57;;;;;;;21.11;45.12;96103.44;4945295;29;20212;-29
2023/11/30 04:26:50;;;;;;;2.73;2.33;;;;;;;21.11;45.14;96106.00;4947329;29;20239;-26
2023/11/30 04:29:17;;;;;;;2.80;2.60;;;;;;;21.11;45.29;96088.13;4945550;29;20290;-28
2023/11/30 04:31:43;;;;;;;3.33;3.03;;;;;;;21.09;44.93;96094.91;4940472;29;20224;-26
2023/11/30 04:34:10;;;;;;;2.60;2.40;;;;;;;21.11;45.03;96095.78;4929487;29;20197;-26
2023/11/30 04:36:37;;;;;;;2.67;2.47;;;;;;;21.10;45.17;96087.25;4950992;29;20228;-28
2023/11/30 04:39:04;;;;;;;2.43;2.23;;;;;;;21.11;45.15;96083.84;4948228;29;20204;-28
2023/11/30 04:41:31;;;;;;;2.57;2.37;;;;;;;21.11;45.43;96083.00;4946989;29;20224;-32
2023/11/30 04:43:57;;;;;;;2.40;2.20;;;;;;;21.11;45.38;96080.47;4948008;29;20255;-26
2023/11/30 04:46:24;;;;;;;2.53;2.33;;;;;;;21.11;45.27;96081.28;4950017;29;20196;-26
2023/11/30 04:48:50;;;;;;;2.60;2.40;;;;;;;21.12;45.12;96088.13;4951344;29;20203;-26
2023/11/30 04:51:17;;;;;;;2.80;2.60;;;;;;;21.13;45.09;96082.16;4951161;29;20208;-31
2023/11/30 04:53:44;;;;;;;2.63;2.43;;;;;;;21.15;44.81;96089.84;4949265;29;20228;-28
2023/11/30 04:56:10;;;;;;;2.53;2.33;;;;;;;21.16;44.96;96081.31;4949168;29;20675;-26
2023/11/30 04:58:37;;;;;;;2.70;2.50;;;;;;;21.07;44.95;96048.91;4947082;29;20624;-30
2023/11/30 05:01:04;;;;;;;2.70;2.50;;;;;;;21.16;44.93;96074.53;4950566;29;20719;-31
2023/11/30 05:03:30;;;;;;;2.70;2.50;;;;;;;21.16;45.18;96076.22;4947723;29;20695;-36
2023/11/30 05:05:57;;;;;;;2.63;2.43;;;;;;;21.16;44.89;96083.88;4942969;29;20203;-26
2023/11/30 05:08:24;;;;;;;2.70;2.50;;;;;;;21.17;45.17;96078.78;4944388;29;20231;-31
2023/11/30 05:10:50;;;;;;;2.77;2.53;;;;;;;21.16;45.21;96074.53;4946169;29;20287;-28
2023/11/30 05:13:17;;;;;;;2.60;2.40;;;;;;;21.16;45.09;96073.66;4951830;28;20223;-26
2023/11/30 05:15:43;;;;;;;2.83;2.63;;;;;;;21.15;44.98;96065.16;4945754;29;20228;-26
2023/11/30 05:18:12;;;;;;;2.97;2.40;;;;;;;21.16;45.15;96058.34;4947631;29;20291;-28
2023/11/30 05:20:40;;;;;;;2.97;2.57;;;;;;;21.15;45.35;96049.84;4941435;29;20288;-27
2023/11/30 05:23:07;;;;;;;2.57;2.37;;;;;;;21.15;45.02;96047.28;4945008;29;20708;-28
2023/11/30 05:25:33;;;;;;;2.50;2.30;;;;;;;21.15;44.94;96043.88;4950681;29;20296;-28
2023/11/30 05:28:00;;;;;;;2.70;2.50;;;;;;;21.17;44.90;96049.84;4940629;29;20295;-26
2023/11/30 05:30:26;;;;;;;2.60;2.40;;;;;;;21.18;45.00;96041.34;4948447;29;20509;-26
2023/11/30 05:32:53;;;;;;;2.90;2.60;;;;;;;21.17;45.06;96049.84;4936595;29;20829;-27
2023/11/30 05:35:20;;;;;;;2.77;2.50;;;;;;;21.18;44.67;96051.56;4944875;29;20201;-26
2023/11/30 05:37:47;;;;;;;2.50;2.30;;;;;;;21.18;44.84;96046.44;4947749;29;20215;-26
2023/11/30 05:40:13;;;;;;;2.50;2.30;;;;;;;21.16;44.95;96043.88;4934018;29;20228;-27
2023/11/30 05:42:41;;;;;;;2.70;2.50;;;;;;;21.16;44.92;96043.88;4944005;29;20256;-28
2023/11/30 05:45:08;;;;;;;2.80;2.60;;;;;;;21.14;44.84;96048.09;4949443;29;20201;-28
2023/11/30 05:47:35;;;;;;;2.60;2.40;;;;;;;21.13;44.76;96046.41;4955423;28;20201;-26
2023/11/30 05:50:03;;;;;;;2.80;2.60;;;;;;;21.12;44.60;96049.81;4942403;29;20288;-27
2023/11/30 05:52:29;;;;;;;2.53;2.33;;;;;;;21.12;44.66;96041.28;4941986;29;20256;-26
2023/11/30 05:54:57;;;;;;;3.10;2.80;;;;;;;21.04;44.51;96027.59;4944902;29;20592;-27
2023/11/30 05:57:24;;;;;;;2.70;2.50;;;;;;;21.10;44.80;96035.31;4946344;29;20306;-33
2023/11/30 05:59:51;;;;;;;3.33;2.70;;;;;;;21.08;44.67;96035.28;4941561;29;20205;-37
2023/11/30 06:02:17;;;;;;;2.97;2.77;;;;;;;21.07;44.95;96031.03;4946713;29;20714;-26
2023/11/30 06:04:51;;;;;;;2.60;2.40;;;;;;;21.06;44.84;96029.34;4940338;29;20229;-26
2023/11/30 06:07:19;;;;;;;2.70;2.50;;;;;;;21.05;45.11;96022.50;4943959;29;20200;-29
2023/11/30 06:09:46;;;;;;;2.70;2.50;;;;;;;21.06;45.08;96023.38;4947375;29;20212;-30
2023/11/30 06:12:13;;;;;;;2.50;2.30;;;;;;;21.05;45.05;96024.22;4944109;29;20722;-29
2023/11/30 06:14:39;;;;;;;2.87;2.57;;;;;;;21.05;44.51;96025.06;4944741;29;20201;-26
2023/11/30 06:17:06;;;;;;;2.70;2.50;;;;;;;21.03;44.14;96019.09;4952521;29;20276;-28
2023/11/30 06:19:32;;;;;;;2.67;2.47;;;;;;;21.05;44.76;96029.31;4957224;29;20287;-33
2023/11/30 06:22:00;;;;;;;2.87;2.57;;;;;;;21.03;44.92;96039.53;4946039;29;20299;-32
2023/11/30 06:24:26;;;;;;;2.97;2.67;;;;;;;21.04;44.94;96043.78;4952594;29;20639;-26
2023/11/30 06:26:53;;;;;;;4.67;3.20;;;;;;;21.03;42.69;96031.00;4942381;29;20235;-27
2023/11/30 06:29:21;;;;;;;5.27;4.20;;;;;;;21.03;41.83;96029.31;4946924;29;20208;-27
2023/11/30 06:31:47;;;;;;;5.50;4.30;;;;;;;21.02;41.16;96027.59;4949640;29;20311;-28
2023/11/30 06:34:14;;;;;;;5.60;4.30;;;;;;;21.01;41.82;96031.00;4949168;29;20295;-26
2023/11/30 06:36:41;;;;;;;7.40;5.40;;;;;;;20.99;39.46;96035.22;4948666;29;20280;-26
2023/11/30 06:39:07;;;;;;;8.53;5.97;;;;;;;20.98;37.33;96033.53;4951023;29;20201;-26
2023/11/30 06:41:34;;;;;;;9.50;6.17;;;;;;;20.98;36.29;96040.31;4943011;29;20221;-26
2023/11/30 06:44:00;;;;;;;7.97;5.80;;;;;;;20.88;35.93;96034.25;4953205;29;20692;-26
2023/11/30 06:46:27;;;;;;;9.60;6.90;;;;;;;20.92;35.46;96038.53;4949663;29;20809;-27
2023/11/30 06:48:54;;;;;;;8.43;6.57;;;;;;;20.90;34.95;96050.44;4951512;29;20212;-26
2023/11/30 06:51:20;;;;;;;9.47;6.30;;;;;;;20.87;34.58;96040.19;4947913;28;20212;-29
2023/11/30 06:53:47;;;;;;;10.07;6.60;;;;;;;20.85;34.48;96036.78;4948373;29;20220;-26
2023/11/30 06:56:13;;;;;;;8.40;6.27;;;;;;;20.83;34.70;96038.47;4944738;29;20223;-26
2023/11/30 06:58:40;;;;;;;7.43;5.50;;;;;;;20.82;36.33;96033.34;4950057;29;20247;-26
2023/11/30 07:01:07;;;;;;;8.80;5.90;;;;;;;20.79;36.16;96031.63;4945326;29;20196;-27
2023/11/30 07:03:34;;;;;;;8.50;5.47;;;;;;;20.80;37.18;96040.13;4944440;29;20217;-26
2023/11/30 07:06:09;;;;;;;6.40;5.10;;;;;;;20.78;37.70;96040.13;4952444;29;20258;-27
2023/11/30 07:08:35;;;;;;;7.67;5.60;;;;;;;20.79;38.66;96038.44;4949623;29;20678;-28
2023/11/30 07:11:06;;;;;;;12.03;5.23;;;;;;;20.77;38.43;96028.22;4949920;29;20738;-28
2023/11/30 07:13:32;;;;;;;10.47;5.27;;;;;;;20.78;39.29;96029.06;4945993;29;20435;-26
2023/11/30 07:15:59;;;;;;;6.20;4.80;;;;;;;20.77;38.86;96022.22;4952811;29;20268;-26
2023/11/30 07:18:25;;;;;;;9.10;5.37;;;;;;;20.76;38.25;96008.63;4946287;29;20205;-28
2023/11/30 07:20:52;;;;;;;7.83;5.30;;;;;;;20.74;35.88;96012.00;4950994;29;20371;-28
2023/11/30 07:23:18;;;;;;;7.23;4.90;;;;;;;20.75;36.37;96004.34;4948199;28;20279;-28
2023/11/30 07:25:45;;;;;;;6.37;5.53;;;;;;;20.76;37.62;96010.31;4949824;29;20200;-26
2023/11/30 07:28:12;;;;;;;5.80;4.93;;;;;;;20.77;38.50;96017.13;4952014;28;20201;-28
2023/11/30 07:30:42;;;;;;;7.37;4.97;;;;;;;20.76;38.74;96000.09;4956412;29;20208;-26
2023/11/30 07:33:09;;;;;;;6.53;4.60;;;;;;;20.76;39.09;95992.44;4949446;29;20220;-26
2023/11/30 07:35:37;;;;;;;12.80;5.00;;;;;;;20.76;39.33;95988.22;4955908;29;20283;-29
2023/11/30 07:38:04;;;;;;;4.90;4.40;;;;;;;20.78;39.71;95990.78;4946907;29;20645;-26
2023/11/30 07:40:33;;;;;;;6.83;4.33;;;;;;;20.77;39.92;95978.84;4950370;29;20205;-28
2023/11/30 07:43:00;;;;;;;5.33;4.13;;;;;;;20.78;40.28;95983.94;4945565;29;20280;-26
2023/11/30 07:45:28;;;;;;;7.57;4.50;;;;;;;20.70;40.47;95962.63;4950963;29;20212;-26
2023/11/30 07:47:56;;;;;;;5.00;4.30;;;;;;;20.78;40.88;95983.13;4944987;29;20196;-30
2023/11/30 07:50:26;;;;;;;5.47;4.60;;;;;;;20.79;41.04;95982.25;4944139;29;20211;-27
2023/11/30 07:52:53;;;;;;;4.77;4.27;;;;;;;20.81;41.17;95981.44;4950388;29;20219;-27
2023/11/30 07:55:20;;;;;;;10.20;4.53;;;;;;;20.82;41.59;95979.72;4945346;29;20204;-26
2023/11/30 07:57:47;;;;;;;8.17;4.30;;;;;;;20.82;41.76;95983.16;4950989;29;20220;-26
2023/11/30 08:00:15;;;;;;;4.47;4.03;;;;;;;20.82;41.80;95983.16;4943639;29;20212;-28
2023/11/30 08:02:42;;;;;;;5.10;4.40;;;;;;;20.83;41.98;95987.41;4949489;29;20224;-28
2023/11/30 08:05:09;;;;;;;6.43;3.90;;;;;;;20.83;41.93;95984.84;4944262;29;20569;-26
2023/11/30 08:07:35;;;;;;;6.20;4.17;;;;;;;20.84;42.40;95990.81;4945590;29;20211;-28
2023/11/30 08:10:04;;;;;;;4.93;4.17;;;;;;;20.84;42.35;95986.56;4949010;29;20291;-28
2023/11/30 08:12:31;;;;;;;5.00;4.20;;;;;;;20.85;42.69;95988.28;4948362;29;20257;-26
2023/11/30 08:14:58;;;;;;;6.97;3.73;;;;;;;20.85;42.91;95988.28;4947789;29;20204;-26
2023/11/30 08:17:25;;;;;;;4.90;4.03;;;;;;;20.86;42.66;95978.91;4947917;29;20287;-26
2023/11/30 08:19:51;;;;;;;4.27;3.87;;;;;;;20.86;42.70;95973.78;4947816;29;20216;-26
2023/11/30 08:22:18;;;;;;;5.00;4.07;;;;;;;20.87;42.88;95965.31;4951506;29;20236;-28
2023/11/30 08:24:45;;;;;;;4.00;3.60;;;;;;;20.79;42.86;95964.41;4926516;29;20701;-26
2023/11/30 08:27:11;;;;;;;4.67;3.57;;;;;;;20.86;43.07;95963.59;4945347;29;20197;-28
2023/11/30 08:29:38;;;;;;;4.40;3.80;;;;;;;20.87;43.09;95975.53;4946115;28;20215;-35
2023/11/30 08:32:05;;;;;;;3.60;3.30;;;;;;;20.87;43.19;95978.91;4947922;28;20235;-31
2023/11/30 08:34:32;;;;;;;9.03;3.87;;;;;;;20.88;43.20;95982.34;4941189;28;20205;-27
2023/11/30 08:36:59;;;;;;;4.27;3.87;;;;;;;20.88;43.49;95988.31;4941540;28;20272;-33
2023/11/30 08:39:28;;;;;;;3.80;3.37;;;;;;;20.88;43.48;95990.88;4925313;29;20688;-26
2023/11/30 08:41:55;;;;;;;4.67;3.97;;;;;;;20.88;43.30;95998.53;4945249;28;20306;-32
2023/11/30 08:44:24;;;;;;;4.97;3.57;;;;;;;20.88;43.47;95990.88;4945733;28;20742;-29
2023/11/30 08:46:52;;;;;;;4.47;3.73;;;;;;;20.89;43.60;95991.69;4945111;29;20201;-28
2023/11/30 08:49:19;;;;;;;4.30;3.20;;;;;;;20.89;43.82;95992.56;4945540;28;20239;-26
2023/11/30 08:51:45;;;;;;;5.80;3.53;;;;;;;20.90;43.77;95985.75;4943170;28;20690;-28
2023/11/30 08:54:12;;;;;;;5.33;3.43;;;;;;;20.90;43.83;95985.75;4947111;28;20204;-29
2023/11/30 08:56:38;;;;;;;4.63;3.00;;;;;;;20.90;43.75;95986.59;4944008;28;20266;-26
2023/11/30 08:59:05;;;;;;;5.07;3.60;;;;;;;20.90;43.87;95978.94;4941905;28;20208;-26
2023/11/30 09:01:32;;;;;;;3.40;3.10;;;;;;;20.91;43.82;95979.81;4943791;28;20319;-33
2023/11/30 09:04:05;;;;;;;3.77;3.30;;;;;;;20.92;43.87;95984.91;4947833;28;20665;-26
2023/11/30 09:06:33;;;;;;;4.10;3.37;;;;;;;20.92;43.87;95989.16;4945213;28;20327;-27
2023/11/30 09:09:01;;;;;;;4.00;3.50;;;;;;;20.93;43.97;95984.06;4947868;28;20212;-27
2023/11/30 09:11:30;;;;;;;3.83;3.40;;;;;;;20.92;43.91;95977.25;4949380;28;20537;-26
2023/11/30 09:13:57;;;;;;;3.50;3.20;;;;;;;20.94;43.89;95967.06;4944617;28;20666;-26
2023/11/30 09:16:25;;;;;;;4.67;3.33;;;;;;;20.95;44.21;95966.25;4938959;28;20900;-26
2023/11/30 09:18:54;;;;;;;5.57;3.77;;;;;;;20.95;43.96;95963.69;4945237;28;20204;-26
2023/11/30 09:21:21;;;;;;;4.53;3.17;;;;;;;20.95;44.19;95956.88;4950765;28;20212;-26
2023/11/30 09:23:48;;;;;;;4.30;3.33;;;;;;;20.97;44.29;95964.56;4941846;28;20599;-26
2023/11/30 09:26:14;;;;;;;5.43;3.10;;;;;;;20.97;44.39;95977.31;4946067;28;20208;-35
2023/11/30 09:28:41;;;;;;;3.10;2.80;;;;;;;20.97;44.20;95974.78;4941230;28;20201;-27
2023/11/30 09:31:08;;;;;;;3.47;3.17;;;;;;;20.96;44.34;95973.91;4939899;28;20252;-26
2023/11/30 09:33:34;;;;;;;3.20;2.90;;;;;;;20.92;44.51;95963.63;4941514;28;20315;-30
2023/11/30 09:36:01;;;;;;;6.33;3.43;;;;;;;20.97;44.45;95977.31;4947758;28;20291;-30
2023/11/30 09:38:28;;;;;;;5.30;3.13;;;;;;;20.96;44.64;95967.97;4938285;28;20282;-28
2023/11/30 09:40:55;;;;;;;3.50;3.20;;;;;;;20.97;44.38;95959.44;4937630;28;20256;-26
2023/11/30 09:43:21;;;;;;;3.90;3.00;;;;;;;20.97;44.85;95955.22;4940830;28;20232;-33
2023/11/30 09:45:49;;;;;;;4.37;3.40;;;;;;;20.98;44.64;95956.03;4930288;29;20691;-26
2023/11/30 09:48:16;;;;;;;4.37;3.20;;;;;;;20.97;44.70;95959.44;4940394;28;20208;-29
2023/11/30 09:50:43;;;;;;;3.40;3.10;;;;;;;20.97;44.67;95956.91;4938638;28;20264;-26
2023/11/30 09:53:10;;;;;;;4.53;3.23;;;;;;;20.97;44.54;95949.22;4947824;29;20266;-32
2023/11/30 09:55:36;;;;;;;4.40;3.17;;;;;;;20.94;44.49;95936.41;4930681;29;20209;-26
2023/11/30 09:58:06;;;;;;;5.53;3.70;;;;;;;20.96;44.50;95939.88;4917106;29;20307;-26
2023/11/30 10:00:33;;;;;;;4.03;2.97;;;;;;;20.96;44.69;95930.50;4950792;29;20197;-27
2023/11/30 10:03:00;;;;;;;5.40;3.13;;;;;;;20.96;44.58;95922.00;4950291;29;20349;-28
2023/11/30 10:05:28;;;;;;;3.43;3.13;;;;;;;20.96;44.78;95938.16;4950502;29;20291;-26
2023/11/30 10:07:58;;;;;;;4.17;3.33;;;;;;;20.96;44.89;95925.38;4944464;29;20251;-31
2023/11/30 10:10:25;;;;;;;4.73;3.33;;;;;;;20.96;44.97;95922.00;4949350;29;20209;-28
2023/11/30 10:12:53;;;;;;;3.03;2.73;;;;;;;20.96;44.66;95912.63;4954080;29;20706;-28
2023/11/30 10:15:20;;;;;;;3.60;3.00;;;;;;;20.96;44.88;95919.44;4948776;29;20239;-34
2023/11/30 10:17:48;;;;;;;3.17;2.87;;;;;;;20.96;44.67;95915.16;4948678;29;20217;-27
2023/11/30 10:20:17;;;;;;;3.90;3.10;;;;;;;20.96;44.87;95901.56;4944604;28;20223;-29
2023/11/30 10:22:44;;;;;;;3.47;2.80;;;;;;;20.96;45.08;95894.75;4942399;29;20600;-26
2023/11/30 10:25:10;;;;;;;4.17;3.00;;;;;;;20.95;45.01;95895.59;4950180;28;20204;-32
2023/11/30 10:27:37;;;;;;;3.23;2.80;;;;;;;20.95;44.99;95882.84;4943701;29;20197;-36
2023/11/30 10:30:04;;;;;;;4.47;2.90;;;;;;;20.96;45.12;95888.81;4946930;28;20208;-27
2023/11/30 10:32:37;;;;;;;3.10;2.80;;;;;;;20.96;44.79;95889.63;4943412;28;20238;-29
2023/11/30 10:35:05;;;;;;;3.40;3.10;;;;;;;20.96;44.87;95883.69;4921245;28;20212;-27
2023/11/30 10:37:45;;;;;;;5.90;4.20;;;;;;;20.92;40.60;95872.56;4944974;28;20227;-29
2023/11/30 10:40:12;;;;;;;4.97;4.27;;;;;;;20.91;40.07;95870.88;4941794;28;20209;-27
2023/11/30 10:42:41;;;;;;;4.63;4.13;;;;;;;20.91;41.10;95863.22;4953691;28;20220;-27
2023/11/30 10:45:08;;;;;;;5.53;3.97;;;;;;;20.92;41.99;95851.28;4917755;28;20577;-29
2023/11/30 10:47:35;;;;;;;6.27;4.47;;;;;;;20.91;42.19;95849.56;4951417;28;20302;-27
2023/11/30 10:50:05;;;;;;;4.90;4.00;;;;;;;20.91;42.39;95854.69;4937854;29;20196;-29
2023/11/30 10:52:32;;;;;;;4.43;4.00;;;;;;;20.89;42.43;95847.03;4950071;29;20220;-29
2023/11/30 10:55:13;;;;;;;4.20;3.80;;;;;;;20.90;42.64;95866.59;4946857;29;20236;-26
2023/11/30 10:57:43;;;;;;;4.30;3.70;;;;;;;20.91;42.63;95859.78;4932913;29;20229;-30
2023/11/30 11:00:13;;;;;;;4.30;3.53;;;;;;;20.90;43.11;95851.28;4949451;28;20214;-26
2023/11/30 11:02:45;;;;;;;6.60;4.37;;;;;;;20.92;43.37;95856.38;4944120;28;20251;-29
2023/11/30 11:05:15;;;;;;;4.63;3.83;;;;;;;20.92;43.32;95856.38;4948671;28;20208;-36
2023/11/30 11:07:44;;;;;;;4.10;3.70;;;;;;;20.96;43.93;95853.88;4944518;29;20568;-26
2023/11/30 11:10:22;;;;;;;4.07;3.20;;;;;;;20.97;44.44;95849.66;4947038;29;20212;-31
2023/11/30 11:12:50;;;;;;;5.03;3.47;;;;;;;20.99;44.84;95855.63;4921499;29;20285;-28
2023/11/30 11:15:21;;;;;;;4.60;3.03;;;;;;;21.01;45.12;95843.69;4950486;28;20680;-32
2023/11/30 11:18:03;;;;;;;3.90;2.90;;;;;;;21.03;45.32;95829.25;4947949;28;20605;-30
2023/11/30 11:20:31;;;;;;;3.47;2.70;;;;;;;21.04;45.42;95815.63;4944831;28;20209;-26
2023/11/30 11:23:04;;;;;;;3.93;2.87;;;;;;;21.06;45.58;95809.69;4950489;28;20739;-26
2023/11/30 11:25:43;;;;;;;4.40;2.90;;;;;;;21.09;45.81;95803.72;4947559;28;20258;-26
2023/11/30 11:28:11;;;;;;;3.50;2.63;;;;;;;21.11;45.60;95802.03;4945725;28;20660;-29
2023/11/30 11:30:45;;;;;;;3.43;3.00;;;;;;;21.09;45.55;95804.59;4947426;28;20204;-29
2023/11/30 11:33:14;;;;;;;3.00;2.70;;;;;;;21.12;45.76;95809.72;4929014;28;20232;-27
2023/11/30 11:35:41;;;;;;;3.00;2.70;;;;;;;21.13;45.83;95813.97;4938718;28;20212;-26